sensor_id;sensor_type;location;lat;lon;timestamp;P1;durP1;ratioP1;P2;durP2;ratioP2
8819;SDS011;4446;50.876;4.736;2023-12-20T00:01:59;2.80;;;1.67;;
8819;SDS011;4446;50.876;4.736;2023-12-20T00:04:27;4.35;;;1.48;;
8819;SDS011;4446;50.876;4.736;2023-12-20T00:06:54;3.58;;;1.30;;
8819;SDS011;4446;50.876;4.736;2023-12-20T00:09:21;2.28;;;1.50;;
8819;SDS011;4446;50.876;4.736;2023-12-20T00:11:48;1.77;;;1.30;;
8819;SDS011;4446;50.876;4.736;2023-12-20T00:14:17;3.03;;;1.75;;
8819;SDS011;4446;50.876;4.736;2023-12-20T00:16:44;2.42;;;1.60;;
8819;SDS011;4446;50.876;4.736;2023-12-20T00:19:11;3.38;;;1.40;;
8819;SDS011;4446;50.876;4.736;2023-12-20T00:21:38;5.95;;;1.70;;
8819;SDS011;4446;50.876;4.736;2023-12-20T00:24:05;2.40;;;1.50;;
8819;SDS011;4446;50.876;4.736;2023-12-20T00:26:32;2.92;;;1.27;;
8819;SDS011;4446;50.876;4.736;2023-12-20T00:28:59;3.38;;;1.30;;
8819;SDS011;4446;50.876;4.736;2023-12-20T00:31:27;1.55;;;1.15;;
8819;SDS011;4446;50.876;4.736;2023-12-20T00:33:54;2.63;;;1.50;;
8819;SDS011;4446;50.876;4.736;2023-12-20T00:36:21;2.60;;;1.33;;
8819;SDS011;4446;50.876;4.736;2023-12-20T00:38:48;2.15;;;1.30;;
8819;SDS011;4446;50.876;4.736;2023-12-20T00:41:16;1.70;;;1.20;;
8819;SDS011;4446;50.876;4.736;2023-12-20T00:43:43;7.30;;;1.60;;
8819;SDS011;4446;50.876;4.736;2023-12-20T00:46:10;3.22;;;1.25;;
8819;SDS011;4446;50.876;4.736;2023-12-20T00:48:39;3.22;;;1.80;;
8819;SDS011;4446;50.876;4.736;2023-12-20T00:51:07;4.53;;;1.52;;
8819;SDS011;4446;50.876;4.736;2023-12-20T00:53:34;6.53;;;1.55;;
8819;SDS011;4446;50.876;4.736;2023-12-20T00:56:01;2.47;;;1.50;;
8819;SDS011;4446;50.876;4.736;2023-12-20T00:58:28;9.32;;;1.73;;
8819;SDS011;4446;50.876;4.736;2023-12-20T01:00:55;3.30;;;1.20;;
8819;SDS011;4446;50.876;4.736;2023-12-20T01:03:23;3.50;;;1.63;;
8819;SDS011;4446;50.876;4.736;2023-12-20T01:05:51;2.47;;;1.13;;
8819;SDS011;4446;50.876;4.736;2023-12-20T01:08:18;3.05;;;1.30;;
8819;SDS011;4446;50.876;4.736;2023-12-20T01:10:45;5.75;;;1.48;;
8819;SDS011;4446;50.876;4.736;2023-12-20T01:13:13;3.22;;;1.10;;
8819;SDS011;4446;50.876;4.736;2023-12-20T01:15:40;3.67;;;1.70;;
8819;SDS011;4446;50.876;4.736;2023-12-20T01:18:07;1.67;;;1.17;;
8819;SDS011;4446;50.876;4.736;2023-12-20T01:20:34;3.15;;;1.30;;
8819;SDS011;4446;50.876;4.736;2023-12-20T01:23:02;1.85;;;1.60;;
8819;SDS011;4446;50.876;4.736;2023-12-20T01:25:30;4.55;;;1.40;;
8819;SDS011;4446;50.876;4.736;2023-12-20T01:27:57;5.63;;;1.45;;
8819;SDS011;4446;50.876;4.736;2023-12-20T01:30:24;2.55;;;1.30;;
8819;SDS011;4446;50.876;4.736;2023-12-20T01:32:51;2.25;;;1.40;;
8819;SDS011;4446;50.876;4.736;2023-12-20T01:35:18;5.88;;;1.83;;
8819;SDS011;4446;50.876;4.736;2023-12-20T01:37:45;2.53;;;1.58;;
8819;SDS011;4446;50.876;4.736;2023-12-20T01:40:13;1.30;;;1.20;;
8819;SDS011;4446;50.876;4.736;2023-12-20T01:42:40;2.53;;;1.50;;
8819;SDS011;4446;50.876;4.736;2023-12-20T01:45:08;1.33;;;1.25;;
8819;SDS011;4446;50.876;4.736;2023-12-20T01:47:35;1.95;;;1.50;;
8819;SDS011;4446;50.876;4.736;2023-12-20T01:50:03;2.13;;;1.40;;
8819;SDS011;4446;50.876;4.736;2023-12-20T01:52:33;3.38;;;1.48;;
8819;SDS011;4446;50.876;4.736;2023-12-20T01:55:01;3.35;;;1.38;;
8819;SDS011;4446;50.876;4.736;2023-12-20T01:57:33;1.55;;;1.27;;
8819;SDS011;4446;50.876;4.736;2023-12-20T02:00:00;4.75;;;1.52;;
8819;SDS011;4446;50.876;4.736;2023-12-20T02:02:28;3.88;;;1.85;;
8819;SDS011;4446;50.876;4.736;2023-12-20T02:04:56;2.85;;;1.40;;
8819;SDS011;4446;50.876;4.736;2023-12-20T02:07:24;3.53;;;1.40;;
8819;SDS011;4446;50.876;4.736;2023-12-20T02:09:51;2.03;;;1.38;;
8819;SDS011;4446;50.876;4.736;2023-12-20T02:12:18;7.35;;;1.77;;
8819;SDS011;4446;50.876;4.736;2023-12-20T02:14:47;1.85;;;1.65;;
8819;SDS011;4446;50.876;4.736;2023-12-20T02:17:15;2.78;;;1.60;;
8819;SDS011;4446;50.876;4.736;2023-12-20T02:19:43;2.38;;;1.55;;
8819;SDS011;4446;50.876;4.736;2023-12-20T02:22:11;3.88;;;1.50;;
8819;SDS011;4446;50.876;4.736;2023-12-20T02:24:39;3.53;;;1.60;;
8819;SDS011;4446;50.876;4.736;2023-12-20T02:27:06;2.80;;;1.67;;
8819;SDS011;4446;50.876;4.736;2023-12-20T02:29:33;2.15;;;1.60;;
8819;SDS011;4446;50.876;4.736;2023-12-20T02:32:01;3.88;;;1.67;;
8819;SDS011;4446;50.876;4.736;2023-12-20T02:34:29;4.25;;;1.40;;
8819;SDS011;4446;50.876;4.736;2023-12-20T02:36:56;4.13;;;1.83;;
8819;SDS011;4446;50.876;4.736;2023-12-20T02:39:25;5.90;;;1.63;;
8819;SDS011;4446;50.876;4.736;2023-12-20T02:41:52;2.20;;;1.73;;
8819;SDS011;4446;50.876;4.736;2023-12-20T02:44:19;3.63;;;1.77;;
8819;SDS011;4446;50.876;4.736;2023-12-20T02:46:46;3.30;;;1.60;;
8819;SDS011;4446;50.876;4.736;2023-12-20T02:49:13;3.30;;;1.60;;
8819;SDS011;4446;50.876;4.736;2023-12-20T02:51:40;4.97;;;1.80;;
8819;SDS011;4446;50.876;4.736;2023-12-20T02:54:07;3.22;;;1.55;;
8819;SDS011;4446;50.876;4.736;2023-12-20T02:56:35;7.65;;;1.95;;
8819;SDS011;4446;50.876;4.736;2023-12-20T02:59:02;4.50;;;1.92;;
8819;SDS011;4446;50.876;4.736;2023-12-20T03:01:31;2.75;;;1.48;;
8819;SDS011;4446;50.876;4.736;2023-12-20T03:03:58;5.47;;;1.98;;
8819;SDS011;4446;50.876;4.736;2023-12-20T03:06:25;2.58;;;1.40;;
8819;SDS011;4446;50.876;4.736;2023-12-20T03:08:52;4.35;;;1.50;;
8819;SDS011;4446;50.876;4.736;2023-12-20T03:11:19;6.47;;;1.73;;
8819;SDS011;4446;50.876;4.736;2023-12-20T03:13:48;3.47;;;1.73;;
8819;SDS011;4446;50.876;4.736;2023-12-20T03:16:15;3.10;;;1.80;;
8819;SDS011;4446;50.876;4.736;2023-12-20T03:18:42;6.38;;;1.90;;
8819;SDS011;4446;50.876;4.736;2023-12-20T03:21:09;1.98;;;1.42;;
8819;SDS011;4446;50.876;4.736;2023-12-20T03:23:36;3.92;;;1.70;;
8819;SDS011;4446;50.876;4.736;2023-12-20T03:26:03;3.30;;;1.42;;
8819;SDS011;4446;50.876;4.736;2023-12-20T03:28:33;3.25;;;1.75;;
8819;SDS011;4446;50.876;4.736;2023-12-20T03:31:03;1.75;;;1.60;;
8819;SDS011;4446;50.876;4.736;2023-12-20T03:33:30;8.43;;;1.65;;
8819;SDS011;4446;50.876;4.736;2023-12-20T03:35:57;2.25;;;1.58;;
8819;SDS011;4446;50.876;4.736;2023-12-20T03:38:24;6.78;;;1.98;;
8819;SDS011;4446;50.876;4.736;2023-12-20T03:40:51;11.43;;;2.00;;
8819;SDS011;4446;50.876;4.736;2023-12-20T03:43:18;3.38;;;2.10;;
8819;SDS011;4446;50.876;4.736;2023-12-20T03:45:46;2.63;;;1.83;;
8819;SDS011;4446;50.876;4.736;2023-12-20T03:48:14;3.65;;;1.92;;
8819;SDS011;4446;50.876;4.736;2023-12-20T03:50:41;6.85;;;1.88;;
8819;SDS011;4446;50.876;4.736;2023-12-20T03:53:08;5.60;;;1.83;;
8819;SDS011;4446;50.876;4.736;2023-12-20T03:55:35;6.55;;;1.83;;
8819;SDS011;4446;50.876;4.736;2023-12-20T03:58:02;2.72;;;1.70;;
8819;SDS011;4446;50.876;4.736;2023-12-20T04:00:29;3.00;;;2.05;;
8819;SDS011;4446;50.876;4.736;2023-12-20T04:02:56;5.13;;;1.90;;
8819;SDS011;4446;50.876;4.736;2023-12-20T04:05:25;5.50;;;2.17;;
8819;SDS011;4446;50.876;4.736;2023-12-20T04:07:52;5.07;;;2.15;;
8819;SDS011;4446;50.876;4.736;2023-12-20T04:10:19;2.92;;;1.80;;
8819;SDS011;4446;50.876;4.736;2023-12-20T04:12:46;4.10;;;1.77;;
8819;SDS011;4446;50.876;4.736;2023-12-20T04:15:13;3.95;;;2.28;;
8819;SDS011;4446;50.876;4.736;2023-12-20T04:17:40;6.53;;;2.20;;
8819;SDS011;4446;50.876;4.736;2023-12-20T04:20:08;3.53;;;1.90;;
8819;SDS011;4446;50.876;4.736;2023-12-20T04:22:36;4.53;;;1.80;;
8819;SDS011;4446;50.876;4.736;2023-12-20T04:25:04;3.20;;;1.83;;
8819;SDS011;4446;50.876;4.736;2023-12-20T04:27:31;5.88;;;2.22;;
8819;SDS011;4446;50.876;4.736;2023-12-20T04:29:58;4.85;;;1.77;;
8819;SDS011;4446;50.876;4.736;2023-12-20T04:32:25;5.13;;;2.25;;
8819;SDS011;4446;50.876;4.736;2023-12-20T04:34:52;4.82;;;1.90;;
8819;SDS011;4446;50.876;4.736;2023-12-20T04:37:19;4.72;;;2.30;;
8819;SDS011;4446;50.876;4.736;2023-12-20T04:39:47;5.70;;;2.45;;
8819;SDS011;4446;50.876;4.736;2023-12-20T04:42:15;4.35;;;1.80;;
8819;SDS011;4446;50.876;4.736;2023-12-20T04:44:42;4.68;;;2.13;;
8819;SDS011;4446;50.876;4.736;2023-12-20T04:47:10;3.38;;;1.70;;
8819;SDS011;4446;50.876;4.736;2023-12-20T04:49:37;5.38;;;2.10;;
8819;SDS011;4446;50.876;4.736;2023-12-20T04:52:04;2.85;;;1.80;;
8819;SDS011;4446;50.876;4.736;2023-12-20T04:54:31;4.85;;;1.58;;
8819;SDS011;4446;50.876;4.736;2023-12-20T04:56:59;5.43;;;2.05;;
8819;SDS011;4446;50.876;4.736;2023-12-20T04:59:27;5.00;;;2.00;;
8819;SDS011;4446;50.876;4.736;2023-12-20T05:01:54;3.28;;;1.85;;
8819;SDS011;4446;50.876;4.736;2023-12-20T05:04:20;3.85;;;1.98;;
8819;SDS011;4446;50.876;4.736;2023-12-20T05:06:47;7.25;;;2.08;;
8819;SDS011;4446;50.876;4.736;2023-12-20T05:09:16;3.33;;;1.60;;
8819;SDS011;4446;50.876;4.736;2023-12-20T05:11:43;6.38;;;2.05;;
8819;SDS011;4446;50.876;4.736;2023-12-20T05:14:11;3.65;;;1.70;;
8819;SDS011;4446;50.876;4.736;2023-12-20T05:16:38;4.38;;;2.13;;
8819;SDS011;4446;50.876;4.736;2023-12-20T05:19:05;5.57;;;1.60;;
8819;SDS011;4446;50.876;4.736;2023-12-20T05:21:32;4.55;;;1.33;;
8819;SDS011;4446;50.876;4.736;2023-12-20T05:23:58;9.68;;;2.10;;
8819;SDS011;4446;50.876;4.736;2023-12-20T05:26:26;6.03;;;1.70;;
8819;SDS011;4446;50.876;4.736;2023-12-20T05:28:54;6.93;;;2.03;;
8819;SDS011;4446;50.876;4.736;2023-12-20T05:31:23;4.15;;;1.95;;
8819;SDS011;4446;50.876;4.736;2023-12-20T05:33:50;9.88;;;2.10;;
8819;SDS011;4446;50.876;4.736;2023-12-20T05:36:17;4.85;;;2.15;;
8819;SDS011;4446;50.876;4.736;2023-12-20T05:38:45;2.22;;;1.85;;
8819;SDS011;4446;50.876;4.736;2023-12-20T05:41:12;10.52;;;1.88;;
8819;SDS011;4446;50.876;4.736;2023-12-20T05:43:39;9.02;;;1.88;;
8819;SDS011;4446;50.876;4.736;2023-12-20T05:46:07;3.63;;;1.55;;
8819;SDS011;4446;50.876;4.736;2023-12-20T05:48:37;4.80;;;2.10;;
8819;SDS011;4446;50.876;4.736;2023-12-20T05:51:04;5.75;;;2.00;;
8819;SDS011;4446;50.876;4.736;2023-12-20T05:53:31;2.10;;;1.40;;
8819;SDS011;4446;50.876;4.736;2023-12-20T05:55:58;3.63;;;1.63;;
8819;SDS011;4446;50.876;4.736;2023-12-20T05:58:26;3.22;;;1.95;;
8819;SDS011;4446;50.876;4.736;2023-12-20T06:00:54;2.90;;;1.50;;
8819;SDS011;4446;50.876;4.736;2023-12-20T06:03:21;4.63;;;1.70;;
8819;SDS011;4446;50.876;4.736;2023-12-20T06:05:50;6.70;;;2.10;;
8819;SDS011;4446;50.876;4.736;2023-12-20T06:08:17;6.57;;;1.88;;
8819;SDS011;4446;50.876;4.736;2023-12-20T06:10:44;6.70;;;2.03;;
8819;SDS011;4446;50.876;4.736;2023-12-20T06:13:11;4.70;;;1.75;;
8819;SDS011;4446;50.876;4.736;2023-12-20T06:15:39;5.18;;;1.90;;
8819;SDS011;4446;50.876;4.736;2023-12-20T06:18:06;8.18;;;2.72;;
8819;SDS011;4446;50.876;4.736;2023-12-20T06:20:33;4.85;;;2.08;;
8819;SDS011;4446;50.876;4.736;2023-12-20T06:23:01;6.35;;;2.17;;
8819;SDS011;4446;50.876;4.736;2023-12-20T06:25:29;3.78;;;2.33;;
8819;SDS011;4446;50.876;4.736;2023-12-20T06:27:56;10.02;;;2.17;;
8819;SDS011;4446;50.876;4.736;2023-12-20T06:30:23;11.43;;;2.13;;
8819;SDS011;4446;50.876;4.736;2023-12-20T06:32:50;3.95;;;2.17;;
8819;SDS011;4446;50.876;4.736;2023-12-20T06:35:18;3.47;;;2.10;;
8819;SDS011;4446;50.876;4.736;2023-12-20T06:37:45;4.22;;;1.90;;
8819;SDS011;4446;50.876;4.736;2023-12-20T06:40:13;6.25;;;2.20;;
8819;SDS011;4446;50.876;4.736;2023-12-20T06:42:41;4.07;;;1.90;;
8819;SDS011;4446;50.876;4.736;2023-12-20T06:45:08;1.70;;;1.42;;
8819;SDS011;4446;50.876;4.736;2023-12-20T06:47:36;8.15;;;1.67;;
8819;SDS011;4446;50.876;4.736;2023-12-20T06:50:03;5.85;;;2.22;;
8819;SDS011;4446;50.876;4.736;2023-12-20T06:52:31;3.85;;;1.70;;
8819;SDS011;4446;50.876;4.736;2023-12-20T06:54:58;2.47;;;1.52;;
8819;SDS011;4446;50.876;4.736;2023-12-20T06:57:26;3.75;;;1.83;;
8819;SDS011;4446;50.876;4.736;2023-12-20T06:59:53;4.30;;;1.88;;
8819;SDS011;4446;50.876;4.736;2023-12-20T07:02:20;2.72;;;1.60;;
8819;SDS011;4446;50.876;4.736;2023-12-20T07:04:47;4.15;;;1.55;;
8819;SDS011;4446;50.876;4.736;2023-12-20T07:07:14;2.90;;;1.40;;
8819;SDS011;4446;50.876;4.736;2023-12-20T07:09:41;3.67;;;1.63;;
8819;SDS011;4446;50.876;4.736;2023-12-20T07:12:08;4.47;;;1.42;;
8819;SDS011;4446;50.876;4.736;2023-12-20T07:14:37;2.83;;;1.67;;
8819;SDS011;4446;50.876;4.736;2023-12-20T07:17:04;1.75;;;1.17;;
8819;SDS011;4446;50.876;4.736;2023-12-20T07:19:32;2.13;;;1.33;;
8819;SDS011;4446;50.876;4.736;2023-12-20T07:21:59;3.67;;;1.23;;
8819;SDS011;4446;50.876;4.736;2023-12-20T07:24:26;7.60;;;1.90;;
8819;SDS011;4446;50.876;4.736;2023-12-20T07:26:53;6.47;;;1.52;;
8819;SDS011;4446;50.876;4.736;2023-12-20T07:29:20;3.45;;;2.05;;
8819;SDS011;4446;50.876;4.736;2023-12-20T07:31:49;1.88;;;1.38;;
8819;SDS011;4446;50.876;4.736;2023-12-20T07:34:17;3.08;;;1.60;;
8819;SDS011;4446;50.876;4.736;2023-12-20T07:36:44;3.85;;;1.45;;
8819;SDS011;4446;50.876;4.736;2023-12-20T07:39:11;5.18;;;1.50;;
8819;SDS011;4446;50.876;4.736;2023-12-20T07:41:38;6.32;;;1.25;;
8819;SDS011;4446;50.876;4.736;2023-12-20T07:44:06;4.85;;;1.83;;
8819;SDS011;4446;50.876;4.736;2023-12-20T07:46:33;3.08;;;1.50;;
8819;SDS011;4446;50.876;4.736;2023-12-20T07:49:01;3.30;;;1.50;;
8819;SDS011;4446;50.876;4.736;2023-12-20T07:51:29;5.88;;;1.55;;
8819;SDS011;4446;50.876;4.736;2023-12-20T07:53:56;3.05;;;1.33;;
8819;SDS011;4446;50.876;4.736;2023-12-20T07:56:23;5.72;;;1.60;;
8819;SDS011;4446;50.876;4.736;2023-12-20T07:58:50;2.33;;;1.38;;
8819;SDS011;4446;50.876;4.736;2023-12-20T08:01:17;1.90;;;1.30;;
8819;SDS011;4446;50.876;4.736;2023-12-20T08:03:44;5.75;;;1.65;;
8819;SDS011;4446;50.876;4.736;2023-12-20T08:06:16;2.38;;;1.30;;
8819;SDS011;4446;50.876;4.736;2023-12-20T08:08:43;6.70;;;1.40;;
8819;SDS011;4446;50.876;4.736;2023-12-20T08:11:10;4.50;;;1.55;;
8819;SDS011;4446;50.876;4.736;2023-12-20T08:13:37;4.18;;;1.58;;
8819;SDS011;4446;50.876;4.736;2023-12-20T08:16:05;3.88;;;2.03;;
8819;SDS011;4446;50.876;4.736;2023-12-20T08:18:32;4.00;;;1.50;;
8819;SDS011;4446;50.876;4.736;2023-12-20T08:20:59;5.82;;;1.45;;
8819;SDS011;4446;50.876;4.736;2023-12-20T08:23:28;6.82;;;1.30;;
8819;SDS011;4446;50.876;4.736;2023-12-20T08:25:55;2.88;;;1.42;;
8819;SDS011;4446;50.876;4.736;2023-12-20T08:28:22;5.57;;;1.80;;
8819;SDS011;4446;50.876;4.736;2023-12-20T08:30:49;2.47;;;1.08;;
8819;SDS011;4446;50.876;4.736;2023-12-20T08:33:18;5.80;;;1.50;;
8819;SDS011;4446;50.876;4.736;2023-12-20T08:35:45;2.22;;;1.30;;
8819;SDS011;4446;50.876;4.736;2023-12-20T08:38:12;2.85;;;1.30;;
8819;SDS011;4446;50.876;4.736;2023-12-20T08:40:41;5.85;;;1.50;;
8819;SDS011;4446;50.876;4.736;2023-12-20T08:43:08;4.95;;;1.30;;
8819;SDS011;4446;50.876;4.736;2023-12-20T08:45:35;5.55;;;1.30;;
8819;SDS011;4446;50.876;4.736;2023-12-20T08:48:02;8.75;;;2.30;;
8819;SDS011;4446;50.876;4.736;2023-12-20T08:50:30;5.65;;;1.80;;
8819;SDS011;4446;50.876;4.736;2023-12-20T08:52:57;3.28;;;1.50;;
8819;SDS011;4446;50.876;4.736;2023-12-20T08:55:24;3.72;;;1.25;;
8819;SDS011;4446;50.876;4.736;2023-12-20T08:57:53;5.85;;;1.63;;
8819;SDS011;4446;50.876;4.736;2023-12-20T09:00:20;3.30;;;1.40;;
8819;SDS011;4446;50.876;4.736;2023-12-20T09:02:49;5.15;;;2.15;;
8819;SDS011;4446;50.876;4.736;2023-12-20T09:05:16;5.65;;;2.35;;
8819;SDS011;4446;50.876;4.736;2023-12-20T09:07:43;8.15;;;2.03;;
8819;SDS011;4446;50.876;4.736;2023-12-20T09:10:10;4.50;;;1.70;;
8819;SDS011;4446;50.876;4.736;2023-12-20T09:12:38;1.95;;;1.45;;
8819;SDS011;4446;50.876;4.736;2023-12-20T09:15:07;6.13;;;1.77;;
8819;SDS011;4446;50.876;4.736;2023-12-20T09:17:35;4.00;;;1.85;;
8819;SDS011;4446;50.876;4.736;2023-12-20T09:20:02;7.95;;;1.88;;
8819;SDS011;4446;50.876;4.736;2023-12-20T09:22:32;5.68;;;1.30;;
8819;SDS011;4446;50.876;4.736;2023-12-20T09:24:59;4.10;;;1.48;;
8819;SDS011;4446;50.876;4.736;2023-12-20T09:27:27;3.33;;;1.60;;
8819;SDS011;4446;50.876;4.736;2023-12-20T09:29:54;2.38;;;1.38;;
8819;SDS011;4446;50.876;4.736;2023-12-20T09:32:22;5.03;;;1.80;;
8819;SDS011;4446;50.876;4.736;2023-12-20T09:34:49;4.05;;;1.63;;
8819;SDS011;4446;50.876;4.736;2023-12-20T09:37:16;2.70;;;1.40;;
8819;SDS011;4446;50.876;4.736;2023-12-20T09:39:43;4.53;;;1.60;;
8819;SDS011;4446;50.876;4.736;2023-12-20T09:42:11;4.80;;;1.52;;
8819;SDS011;4446;50.876;4.736;2023-12-20T09:44:43;4.70;;;1.30;;
8819;SDS011;4446;50.876;4.736;2023-12-20T09:47:10;3.92;;;1.50;;
8819;SDS011;4446;50.876;4.736;2023-12-20T09:49:39;3.03;;;1.45;;
8819;SDS011;4446;50.876;4.736;2023-12-20T09:52:08;5.50;;;1.73;;
8819;SDS011;4446;50.876;4.736;2023-12-20T09:54:37;5.43;;;1.38;;
8819;SDS011;4446;50.876;4.736;2023-12-20T09:57:04;1.75;;;1.52;;
8819;SDS011;4446;50.876;4.736;2023-12-20T09:59:31;5.20;;;1.30;;
8819;SDS011;4446;50.876;4.736;2023-12-20T10:01:58;3.75;;;2.00;;
8819;SDS011;4446;50.876;4.736;2023-12-20T10:04:29;4.57;;;1.90;;
8819;SDS011;4446;50.876;4.736;2023-12-20T10:07:03;5.43;;;2.15;;
8819;SDS011;4446;50.876;4.736;2023-12-20T10:09:31;7.13;;;2.25;;
8819;SDS011;4446;50.876;4.736;2023-12-20T10:11:58;2.35;;;1.40;;
8819;SDS011;4446;50.876;4.736;2023-12-20T10:14:25;2.00;;;1.55;;
8819;SDS011;4446;50.876;4.736;2023-12-20T10:16:53;5.75;;;1.80;;
8819;SDS011;4446;50.876;4.736;2023-12-20T10:19:20;3.88;;;1.73;;
8819;SDS011;4446;50.876;4.736;2023-12-20T10:21:47;6.70;;;2.45;;
8819;SDS011;4446;50.876;4.736;2023-12-20T10:24:17;3.80;;;1.77;;
8819;SDS011;4446;50.876;4.736;2023-12-20T10:26:45;2.47;;;1.50;;
8819;SDS011;4446;50.876;4.736;2023-12-20T10:29:12;3.85;;;1.70;;
8819;SDS011;4446;50.876;4.736;2023-12-20T10:31:39;6.13;;;1.50;;
8819;SDS011;4446;50.876;4.736;2023-12-20T10:34:07;6.10;;;1.75;;
8819;SDS011;4446;50.876;4.736;2023-12-20T10:36:34;4.80;;;1.67;;
8819;SDS011;4446;50.876;4.736;2023-12-20T10:39:01;4.40;;;1.67;;
8819;SDS011;4446;50.876;4.736;2023-12-20T10:41:32;3.00;;;1.55;;
8819;SDS011;4446;50.876;4.736;2023-12-20T10:44:02;6.68;;;1.80;;
8819;SDS011;4446;50.876;4.736;2023-12-20T10:46:37;5.88;;;1.70;;
8819;SDS011;4446;50.876;4.736;2023-12-20T10:49:12;4.70;;;1.77;;
8819;SDS011;4446;50.876;4.736;2023-12-20T10:51:42;4.30;;;1.50;;
8819;SDS011;4446;50.876;4.736;2023-12-20T10:54:10;3.10;;;2.13;;
8819;SDS011;4446;50.876;4.736;2023-12-20T10:56:42;4.20;;;1.20;;
8819;SDS011;4446;50.876;4.736;2023-12-20T10:59:25;6.28;;;1.55;;
8819;SDS011;4446;50.876;4.736;2023-12-20T11:01:55;4.78;;;1.60;;
8819;SDS011;4446;50.876;4.736;2023-12-20T11:04:25;4.05;;;1.58;;
8819;SDS011;4446;50.876;4.736;2023-12-20T11:07:03;2.80;;;1.67;;
8819;SDS011;4446;50.876;4.736;2023-12-20T11:09:43;4.78;;;1.65;;
8819;SDS011;4446;50.876;4.736;2023-12-20T11:12:18;5.40;;;1.35;;
8819;SDS011;4446;50.876;4.736;2023-12-20T11:14:53;1.67;;;1.23;;
8819;SDS011;4446;50.876;4.736;2023-12-20T11:17:22;6.13;;;1.60;;
8819;SDS011;4446;50.876;4.736;2023-12-20T11:20:03;3.85;;;1.50;;
8819;SDS011;4446;50.876;4.736;2023-12-20T11:22:32;4.75;;;2.13;;
8819;SDS011;4446;50.876;4.736;2023-12-20T11:25:02;3.63;;;1.35;;
8819;SDS011;4446;50.876;4.736;2023-12-20T11:27:33;5.40;;;1.60;;
8819;SDS011;4446;50.876;4.736;2023-12-20T11:30:00;3.30;;;1.63;;
8819;SDS011;4446;50.876;4.736;2023-12-20T11:32:33;3.88;;;1.83;;
8819;SDS011;4446;50.876;4.736;2023-12-20T11:35:01;3.00;;;1.58;;
8819;SDS011;4446;50.876;4.736;2023-12-20T11:37:43;4.13;;;1.42;;
8819;SDS011;4446;50.876;4.736;2023-12-20T11:40:13;3.22;;;1.55;;
8819;SDS011;4446;50.876;4.736;2023-12-20T11:42:43;4.25;;;1.55;;
8819;SDS011;4446;50.876;4.736;2023-12-20T11:45:13;2.55;;;1.40;;
8819;SDS011;4446;50.876;4.736;2023-12-20T11:47:42;1.98;;;1.40;;
8819;SDS011;4446;50.876;4.736;2023-12-20T11:50:10;3.95;;;1.80;;
8819;SDS011;4446;50.876;4.736;2023-12-20T11:52:37;6.65;;;1.92;;
8819;SDS011;4446;50.876;4.736;2023-12-20T11:55:05;5.30;;;1.65;;
8819;SDS011;4446;50.876;4.736;2023-12-20T11:57:33;3.88;;;1.23;;
8819;SDS011;4446;50.876;4.736;2023-12-20T12:00:02;3.08;;;1.58;;
8819;SDS011;4446;50.876;4.736;2023-12-20T12:02:29;7.95;;;1.73;;
8819;SDS011;4446;50.876;4.736;2023-12-20T12:04:57;2.92;;;1.35;;
8819;SDS011;4446;50.876;4.736;2023-12-20T12:07:25;3.13;;;1.60;;
8819;SDS011;4446;50.876;4.736;2023-12-20T12:09:52;3.63;;;1.50;;
8819;SDS011;4446;50.876;4.736;2023-12-20T12:12:19;8.48;;;1.92;;
8819;SDS011;4446;50.876;4.736;2023-12-20T12:14:47;5.47;;;1.90;;
8819;SDS011;4446;50.876;4.736;2023-12-20T12:17:16;4.50;;;1.92;;
8819;SDS011;4446;50.876;4.736;2023-12-20T12:19:44;4.63;;;1.65;;
8819;SDS011;4446;50.876;4.736;2023-12-20T12:22:12;6.55;;;1.80;;
8819;SDS011;4446;50.876;4.736;2023-12-20T12:24:40;2.97;;;1.73;;
8819;SDS011;4446;50.876;4.736;2023-12-20T12:27:08;4.05;;;1.73;;
8819;SDS011;4446;50.876;4.736;2023-12-20T12:29:36;4.38;;;1.40;;
8819;SDS011;4446;50.876;4.736;2023-12-20T12:32:04;4.05;;;1.40;;
8819;SDS011;4446;50.876;4.736;2023-12-20T12:34:34;4.70;;;2.28;;
8819;SDS011;4446;50.876;4.736;2023-12-20T12:37:03;6.30;;;2.15;;
8819;SDS011;4446;50.876;4.736;2023-12-20T12:39:30;9.95;;;2.30;;
8819;SDS011;4446;50.876;4.736;2023-12-20T12:41:57;8.85;;;2.70;;
8819;SDS011;4446;50.876;4.736;2023-12-20T12:44:25;4.13;;;2.20;;
8819;SDS011;4446;50.876;4.736;2023-12-20T12:46:52;10.38;;;3.63;;
8819;SDS011;4446;50.876;4.736;2023-12-20T12:49:21;14.18;;;4.53;;
8819;SDS011;4446;50.876;4.736;2023-12-20T12:51:49;7.53;;;3.53;;
8819;SDS011;4446;50.876;4.736;2023-12-20T12:54:17;6.45;;;2.58;;
8819;SDS011;4446;50.876;4.736;2023-12-20T12:56:46;4.40;;;2.30;;
8819;SDS011;4446;50.876;4.736;2023-12-20T12:59:13;6.43;;;2.00;;
8819;SDS011;4446;50.876;4.736;2023-12-20T13:01:40;7.32;;;2.10;;
8819;SDS011;4446;50.876;4.736;2023-12-20T13:04:10;7.68;;;1.85;;
8819;SDS011;4446;50.876;4.736;2023-12-20T13:06:40;4.40;;;1.98;;
8819;SDS011;4446;50.876;4.736;2023-12-20T13:09:14;5.85;;;1.80;;
8819;SDS011;4446;50.876;4.736;2023-12-20T13:11:41;3.22;;;1.90;;
8819;SDS011;4446;50.876;4.736;2023-12-20T13:14:08;6.47;;;1.75;;
8819;SDS011;4446;50.876;4.736;2023-12-20T13:16:41;2.78;;;1.52;;
8819;SDS011;4446;50.876;4.736;2023-12-20T13:19:12;3.78;;;2.05;;
8819;SDS011;4446;50.876;4.736;2023-12-20T13:21:40;6.03;;;1.67;;
8819;SDS011;4446;50.876;4.736;2023-12-20T13:24:20;5.93;;;1.83;;
8819;SDS011;4446;50.876;4.736;2023-12-20T13:26:53;6.63;;;1.83;;
8819;SDS011;4446;50.876;4.736;2023-12-20T13:29:25;4.03;;;2.10;;
8819;SDS011;4446;50.876;4.736;2023-12-20T13:31:57;4.68;;;2.13;;
8819;SDS011;4446;50.876;4.736;2023-12-20T13:34:35;4.68;;;2.13;;
8819;SDS011;4446;50.876;4.736;2023-12-20T13:37:07;5.88;;;1.67;;
8819;SDS011;4446;50.876;4.736;2023-12-20T13:39:48;3.97;;;1.48;;
8819;SDS011;4446;50.876;4.736;2023-12-20T13:42:26;6.60;;;1.80;;
8819;SDS011;4446;50.876;4.736;2023-12-20T13:45:01;7.70;;;2.22;;
8819;SDS011;4446;50.876;4.736;2023-12-20T13:47:31;5.90;;;1.70;;
8819;SDS011;4446;50.876;4.736;2023-12-20T13:50:02;3.55;;;1.50;;
8819;SDS011;4446;50.876;4.736;2023-12-20T13:52:34;2.08;;;1.42;;
8819;SDS011;4446;50.876;4.736;2023-12-20T13:55:11;3.92;;;1.75;;
8819;SDS011;4446;50.876;4.736;2023-12-20T13:57:54;4.40;;;1.85;;
8819;SDS011;4446;50.876;4.736;2023-12-20T14:00:31;5.70;;;1.35;;
8819;SDS011;4446;50.876;4.736;2023-12-20T14:03:03;4.03;;;2.38;;
8819;SDS011;4446;50.876;4.736;2023-12-20T14:05:35;6.70;;;2.03;;
8819;SDS011;4446;50.876;4.736;2023-12-20T14:10:58;2.67;;;1.50;;
8819;SDS011;4446;50.876;4.736;2023-12-20T14:13:45;2.72;;;1.50;;
8819;SDS011;4446;50.876;4.736;2023-12-20T14:16:20;3.72;;;1.50;;
8819;SDS011;4446;50.876;4.736;2023-12-20T14:18:52;4.55;;;1.60;;
8819;SDS011;4446;50.876;4.736;2023-12-20T14:21:22;3.22;;;1.45;;
8819;SDS011;4446;50.876;4.736;2023-12-20T14:23:49;4.43;;;1.92;;
8819;SDS011;4446;50.876;4.736;2023-12-20T16:57:21;3.70;;;1.92;;
8819;SDS011;4446;50.876;4.736;2023-12-20T16:59:48;3.90;;;1.60;;
8819;SDS011;4446;50.876;4.736;2023-12-20T17:02:16;5.95;;;1.50;;
8819;SDS011;4446;50.876;4.736;2023-12-20T17:04:43;4.07;;;1.67;;
8819;SDS011;4446;50.876;4.736;2023-12-20T17:07:10;6.53;;;1.98;;
8819;SDS011;4446;50.876;4.736;2023-12-20T17:09:37;4.43;;;1.65;;
8819;SDS011;4446;50.876;4.736;2023-12-20T17:12:05;3.08;;;1.98;;
8819;SDS011;4446;50.876;4.736;2023-12-20T17:14:34;5.70;;;1.90;;
8819;SDS011;4446;50.876;4.736;2023-12-20T17:17:01;5.30;;;1.90;;
8819;SDS011;4446;50.876;4.736;2023-12-20T17:19:28;3.97;;;2.38;;
8819;SDS011;4446;50.876;4.736;2023-12-20T17:21:56;5.60;;;1.67;;
8819;SDS011;4446;50.876;4.736;2023-12-20T17:24:24;4.72;;;1.88;;
8819;SDS011;4446;50.876;4.736;2023-12-20T17:26:51;7.00;;;2.08;;
8819;SDS011;4446;50.876;4.736;2023-12-20T17:29:18;6.07;;;1.98;;
8819;SDS011;4446;50.876;4.736;2023-12-20T17:31:46;4.60;;;2.58;;
8819;SDS011;4446;50.876;4.736;2023-12-20T17:34:13;6.30;;;2.85;;
8819;SDS011;4446;50.876;4.736;2023-12-20T17:36:40;9.13;;;2.95;;
8819;SDS011;4446;50.876;4.736;2023-12-20T17:39:09;6.00;;;2.20;;
8819;SDS011;4446;50.876;4.736;2023-12-20T17:41:36;6.40;;;2.67;;
8819;SDS011;4446;50.876;4.736;2023-12-20T17:44:03;4.50;;;2.20;;
8819;SDS011;4446;50.876;4.736;2023-12-20T17:46:31;6.03;;;2.13;;
8819;SDS011;4446;50.876;4.736;2023-12-20T17:48:59;6.65;;;2.28;;
8819;SDS011;4446;50.876;4.736;2023-12-20T17:51:27;6.03;;;2.72;;
8819;SDS011;4446;50.876;4.736;2023-12-20T17:53:54;10.95;;;2.40;;
8819;SDS011;4446;50.876;4.736;2023-12-20T17:56:22;5.53;;;2.63;;